Time;durP1;ratioP1;P1;durP2;ratioP2;P2;SDS_P1;SDS_P2;PMS_P1;PMS_P2;Temp;Humidity;BMP_temperature;BMP_pressure;BME280_temperature;BME280_humidity;BME280_pressure;Samples;Min_cycle;Max_cycle;Signal;HPM_P1;HPM_P2
2023/10/15 00:00:24;;;;;;;;;;;8.90;99.90;;;8.02;100.00;97928.19;5025372;28;1628;-71
2023/10/15 00:02:52;;;;;;;;;;;8.90;99.90;;;8.00;100.00;97928.22;5039884;28;1723;-72
2023/10/15 00:05:21;;;;;;;;;;;8.80;99.90;;;7.99;100.00;97928.28;5042068;28;1504;-72
2023/10/15 00:07:49;;;;;;;;;;;8.80;99.90;;;7.89;100.00;97930.22;5021145;28;1973;-71
2023/10/15 00:10:22;;;;;;;;;;;8.80;99.90;;;7.88;100.00;97931.97;5007813;28;1820;-72
2023/10/15 00:12:52;;;;;;;;;;;8.80;99.90;;;7.89;100.00;97937.97;5038775;28;1732;-72
2023/10/15 00:15:23;;;;;;;;;;;8.80;99.90;;;7.92;100.00;97933.59;5039942;28;1589;-72
2023/10/15 00:17:53;;;;;;;;;;;8.80;99.90;;;8.03;100.00;97929.84;5029291;28;1591;-71
2023/10/15 00:20:23;;;;;;;;;;;8.80;99.90;;;8.01;100.00;97932.50;5021603;28;1849;-72
2023/10/15 00:22:51;;;;;;;;;;;8.80;99.90;;;7.96;100.00;97932.63;5020762;28;1840;-72
2023/10/15 00:25:21;;;;;;;;;;;8.80;99.90;;;7.83;100.00;97933.00;5025018;28;1582;-71
2023/10/15 00:27:52;;;;;;;;;;;8.80;99.90;;;7.78;100.00;97932.25;5041620;28;1922;-71
2023/10/15 00:30:31;;;;;;;;;;;8.90;99.90;;;7.81;100.00;97933.03;5027883;28;1552;-71
2023/10/15 00:33:03;;;;;;;;;;;8.90;99.90;;;7.88;100.00;97929.38;5041339;28;1562;-72
2023/10/15 00:35:33;;;;;;;;;;;8.90;99.90;;;7.96;100.00;97932.63;5025090;28;1551;-72
2023/10/15 00:38:11;;;;;;;;;;;8.90;99.90;;;7.96;100.00;97931.78;5041467;28;1464;-72
2023/10/15 00:40:38;;;;;;;;;;;8.80;99.90;;;7.75;100.00;97928.88;5042313;28;1525;-72
2023/10/15 00:43:05;;;;;;;;;;;8.80;99.90;;;7.96;100.00;97929.22;5040165;28;1449;-72
2023/10/15 00:45:43;;;;;;;;;;;8.90;99.90;;;7.95;100.00;97927.50;5040922;28;1159;-72
2023/10/15 00:51:12;;;;;;;;;;;9.00;99.90;;;8.21;100.00;97929.41;5025588;28;1528;-72
2023/10/15 00:53:54;;;;;;;;;;;9.10;99.90;;;8.16;100.00;97926.94;5025802;28;1475;-72
2023/10/15 00:56:28;;;;;;;;;;;9.20;99.90;;;8.23;100.00;97924.16;5024451;28;1608;-72
2023/10/15 01:01:37;;;;;;;;;;;9.10;99.90;;;8.07;100.00;97921.97;5046046;28;1409;-72
2023/10/15 01:04:08;;;;;;;;;;;9.00;99.90;;;8.10;100.00;97929.69;5028029;28;1396;-72
2023/10/15 01:06:37;;;;;;;;;;;9.00;99.90;;;8.05;100.00;97928.97;5040578;28;1481;-72
2023/10/15 01:09:09;;;;;;;;;;;9.00;99.90;;;8.10;100.00;97929.69;5028976;28;1910;-72
2023/10/15 01:11:44;;;;;;;;;;;9.00;99.90;;;8.11;100.00;97925.34;5043180;28;1470;-72
2023/10/15 01:14:13;;;;;;;;;;;9.00;99.90;;;8.08;100.00;97921.13;5022467;28;1562;-72
2023/10/15 01:16:40;;;;;;;;;;;8.90;99.90;;;8.08;100.00;97930.59;5046012;28;1381;-72
2023/10/15 01:21:57;;;;;;;;;;;8.90;99.90;;;7.80;100.00;97920.13;5040339;28;1769;-72
2023/10/15 01:24:26;;;;;;;;;;;8.90;99.90;;;7.80;100.00;97925.31;5023673;28;1264;-72
2023/10/15 01:27:27;;;;;;;;;;;8.80;99.90;;;7.73;100.00;97932.34;5041037;28;1729;-72
2023/10/15 01:29:47;;;;;;;;;;;8.80;99.90;;;7.76;100.00;97932.31;5025755;28;1994;-73
2023/10/15 01:32:22;;;;;;;;;;;8.80;99.90;;;7.65;100.00;97935.16;5025638;28;1470;-72
2023/10/15 01:34:50;;;;;;;;;;;8.70;99.90;;;7.55;100.00;97931.13;5041591;28;1476;-71
2023/10/15 01:39:49;;;;;;;;;;;8.80;99.90;;;8.05;100.00;97934.13;5038808;28;1270;-72
2023/10/15 01:45:13;;;;;;;;;;;9.10;99.90;;;8.25;100.00;97933.56;5020827;28;1521;-72
2023/10/15 01:53:05;;;;;;;;;;;9.30;99.90;;;8.44;100.00;97926.19;5026492;28;1394;-72
2023/10/15 01:55:35;;;;;;;;;;;9.40;99.90;;;8.20;100.00;97925.09;5041523;28;1414;-72
2023/10/15 01:58:05;;;;;;;;;;;9.40;99.90;;;8.22;100.00;97925.91;5039160;28;1454;-72
2023/10/15 02:03:11;;;;;;;;;;;9.40;99.90;;;8.18;100.00;97927.72;5026933;28;1423;-72
2023/10/15 02:05:42;;;;;;;;;;;9.40;99.90;;;8.27;100.00;97924.03;5045678;28;1877;-72
2023/10/15 02:08:12;;;;;;;;;;;9.40;99.90;;;8.23;100.00;97922.41;5018148;28;1975;-72
2023/10/15 02:10:40;;;;;;;;;;;9.40;99.90;;;8.14;100.00;97918.38;5031255;28;1425;-72
2023/10/15 02:13:08;;;;;;;;;;;9.30;99.90;;;8.31;100.00;97923.06;5030161;28;1532;-72
2023/10/15 02:15:40;;;;;;;;;;;9.30;99.90;;;8.31;100.00;97923.06;5049440;28;1449;-72
2023/10/15 02:18:08;;;;;;;;;;;9.40;99.90;;;8.43;100.00;97915.88;5032760;28;1304;-72
2023/10/15 02:20:45;;;;;;;;;;;9.50;99.90;;;8.30;100.00;97920.50;5032330;28;1653;-72
2023/10/15 02:23:15;;;;;;;;;;;9.40;99.90;;;8.38;100.00;97913.38;5049562;28;1544;-72
2023/10/15 02:25:47;;;;;;;;;;;9.40;99.90;;;8.30;100.00;97910.16;5029837;28;1397;-72
2023/10/15 02:28:20;;;;;;;;;;;9.40;99.90;;;8.21;100.00;97906.13;5046170;28;1902;-73
2023/10/15 02:30:47;;;;;;;;;;;9.40;99.90;;;8.08;100.00;97904.75;5043610;28;1370;-72
2023/10/15 02:33:17;;;;;;;;;;;9.30;99.90;;;8.14;100.00;97909.75;5025427;28;1375;-72
2023/10/15 02:35:48;;;;;;;;;;;9.20;99.90;;;8.17;100.00;97907.94;5027710;28;1590;-72
2023/10/15 02:38:16;;;;;;;;;;;9.20;99.90;;;8.16;100.00;97902.78;5043044;28;1362;-72
2023/10/15 02:43:51;;;;;;;;;;;9.20;99.90;;;8.09;100.00;97902.09;5003762;28;1504;-72
2023/10/15 02:49:18;;;;;;;;;;;9.10;99.90;;;7.98;100.00;97904.13;5040497;28;1911;-72
2023/10/15 02:51:48;;;;;;;;;;;9.20;99.90;;;7.80;100.00;97910.66;5031549;28;1382;-71
2023/10/15 02:54:18;;;;;;;;;;;9.10;99.90;;;7.74;100.00;97910.81;5047089;28;1422;-72
2023/10/15 02:56:46;;;;;;;;;;;9.00;99.90;;;7.59;100.00;97918.94;5030893;28;1811;-72
2023/10/15 02:59:16;;;;;;;;;;;8.90;99.90;;;7.59;100.00;97924.13;5044227;28;1324;-72
2023/10/15 03:01:46;;;;;;;;;;;8.90;99.90;;;7.59;100.00;97919.78;5046484;28;1367;-72
2023/10/15 03:04:17;;;;;;;;;;;8.80;99.90;;;7.57;100.00;97918.97;5050304;28;1454;-73
2023/10/15 03:06:48;;;;;;;;;;;8.70;99.90;;;7.28;100.00;97922.28;5045707;28;1372;-72
2023/10/15 03:09:18;;;;;;;;;;;8.60;99.90;;;7.22;100.00;97927.59;5025094;28;1914;-72
2023/10/15 03:11:51;;;;;;;;;;;8.50;99.90;;;7.08;100.00;97923.59;5043542;28;1452;-72
2023/10/15 03:14:21;;;;;;;;;;;8.40;99.90;;;6.96;100.00;97923.06;5049178;28;1198;-72
2023/10/15 03:16:49;;;;;;;;;;;8.30;99.90;;;7.02;100.00;97928.91;5046296;28;1343;-72
2023/10/15 03:19:22;;;;;;;;;;;8.30;99.90;;;6.89;100.00;97930.06;5030451;28;1403;-72
2023/10/15 03:21:56;;;;;;;;;;;8.20;99.90;;;6.93;100.00;97934.25;5045244;28;1708;-72
2023/10/15 03:24:23;;;;;;;;;;;8.10;99.90;;;6.79;100.00;97939.72;5032361;28;1363;-72
2023/10/15 03:26:55;;;;;;;;;;;8.10;99.90;;;6.87;100.00;97945.59;5025597;28;1609;-72
2023/10/15 03:29:23;;;;;;;;;;;8.10;99.90;;;6.76;100.00;97942.38;5029213;28;1969;-72
2023/10/15 03:32:02;;;;;;;;;;;8.00;99.90;;;6.88;100.00;97941.25;5045708;28;1573;-72
2023/10/15 03:34:35;;;;;;;;;;;8.00;99.90;;;6.72;100.00;97942.47;5043765;28;1449;-72
2023/10/15 03:37:05;;;;;;;;;;;8.00;99.90;;;6.57;100.00;97943.63;5043583;28;1331;-72
2023/10/15 03:42:26;;;;;;;;;;;7.50;99.90;;;6.29;100.00;97941.63;5039164;28;1434;-72
2023/10/15 03:44:47;;;;;;;;;;;7.30;99.90;;;6.07;100.00;97941.19;5035150;28;1331;-72
2023/10/15 03:47:16;;;;;;;;;;;7.20;99.90;;;6.02;100.00;97951.59;5044801;28;1596;-72
2023/10/15 03:49:47;;;;;;;;;;;7.10;99.90;;;6.05;100.00;97954.09;5030521;28;1993;-71
2023/10/15 03:52:20;;;;;;;;;;;7.00;99.90;;;6.11;100.00;97941.97;5041738;28;1589;-72
2023/10/15 03:54:51;;;;;;;;;;;7.00;99.90;;;6.02;100.00;97945.56;5048113;28;1307;-71
2023/10/15 03:57:19;;;;;;;;;;;7.10;99.90;;;6.01;100.00;97949.88;5041184;28;1525;-72
2023/10/15 03:59:52;;;;;;;;;;;7.10;99.90;;;5.93;100.00;97949.16;5029935;28;1052;-72
2023/10/15 04:02:30;;;;;;;;;;;7.20;99.90;;;5.88;100.00;97953.50;5039890;28;1481;-72
2023/10/15 04:05:03;;;;;;;;;;;7.20;99.90;;;6.00;100.00;97953.34;5035851;28;1513;-72
2023/10/15 04:07:38;;;;;;;;;;;7.20;99.90;;;5.92;100.00;97951.75;5046931;28;1356;-72
2023/10/15 04:10:08;;;;;;;;;;;7.10;99.90;;;5.86;100.00;97950.13;5018752;28;1902;-72
2023/10/15 04:12:35;;;;;;;;;;;7.00;99.90;;;5.73;100.00;97952.06;5030363;28;1479;-72
2023/10/15 04:15:12;;;;;;;;;;;7.00;99.90;;;5.68;100.00;97947.88;5031671;28;1391;-72
2023/10/15 04:17:40;;;;;;;;;;;7.00;99.90;;;5.74;100.00;97953.75;5042094;28;1465;-72
2023/10/15 04:20:07;;;;;;;;;;;7.10;99.90;;;5.77;100.00;97961.47;5041949;28;1377;-72
2023/10/15 04:22:44;;;;;;;;;;;7.10;99.90;;;5.63;100.00;97958.25;5018484;28;1419;-72
2023/10/15 04:25:26;;;;;;;;;;;7.10;99.90;;;5.70;100.00;97951.25;5025921;28;1578;-72
2023/10/15 04:27:54;;;;;;;;;;;7.10;99.90;;;5.69;100.00;97944.44;5029623;28;1393;-71
2023/10/15 04:30:22;;;;;;;;;;;7.10;99.90;;;5.53;100.00;97948.97;5023009;28;1902;-72
2023/10/15 04:32:49;;;;;;;;;;;7.00;99.90;;;5.69;100.00;97949.56;5023049;28;1429;-72
2023/10/15 04:35:25;;;;;;;;;;;6.90;99.90;;;5.52;100.00;97940.41;5046351;28;1192;-72
2023/10/15 04:37:53;;;;;;;;;;;6.80;99.90;;;5.53;100.00;97942.09;5027221;28;1434;-72
2023/10/15 04:40:23;;;;;;;;;;;6.70;99.90;;;5.59;100.00;97951.47;5044428;28;1391;-72
2023/10/15 04:42:51;;;;;;;;;;;6.60;99.90;;;5.63;100.00;97947.94;5010027;28;1340;-72
2023/10/15 04:45:54;;;;;;;;;;;6.70;99.90;;;5.49;100.00;97948.16;5034993;28;1240;-72
2023/10/15 04:48:14;;;;;;;;;;;6.70;99.90;;;5.66;100.00;97946.19;5027930;28;1285;-72
2023/10/15 04:50:43;;;;;;;;;;;6.80;99.90;;;5.70;100.00;97949.53;5038874;28;1985;-72
2023/10/15 04:53:23;;;;;;;;;;;6.90;99.90;;;5.77;100.00;97953.72;5021431;28;1404;-71
2023/10/15 04:55:52;;;;;;;;;;;6.90;99.90;;;5.74;100.00;97946.03;5041239;28;1442;-71
2023/10/15 04:58:20;;;;;;;;;;;7.00;99.90;;;5.82;100.00;97940.75;5025975;28;1292;-72
2023/10/15 05:00:48;;;;;;;;;;;7.00;99.90;;;5.84;100.00;97947.59;5045417;28;1233;-71
2023/10/15 05:03:16;;;;;;;;;;;7.00;99.90;;;5.74;100.00;97953.75;5027432;28;1824;-73
2023/10/15 05:05:44;;;;;;;;;;;7.00;99.90;;;5.71;100.00;97951.25;5029607;28;1387;-71
2023/10/15 05:08:12;;;;;;;;;;;7.00;99.90;;;5.75;100.00;97957.22;5030218;28;1332;-72
2023/10/15 05:10:50;;;;;;;;;;;7.00;99.90;;;5.70;100.00;97961.56;5044217;28;1902;-72
2023/10/15 05:13:19;;;;;;;;;;;7.00;99.90;;;5.77;100.00;97958.88;5041941;28;1343;-72
2023/10/15 05:15:47;;;;;;;;;;;7.00;99.90;;;5.90;100.00;97962.06;5028715;28;1452;-72
2023/10/15 05:18:15;;;;;;;;;;;7.10;99.90;;;5.89;100.00;97965.53;5034304;28;1481;-72
2023/10/15 05:20:51;;;;;;;;;;;7.10;99.90;;;5.83;100.00;97961.31;5031161;28;1659;-72
2023/10/15 05:23:19;;;;;;;;;;;7.10;99.90;;;5.99;100.00;97967.09;5035726;28;1415;-73
2023/10/15 05:25:49;;;;;;;;;;;7.20;99.90;;;6.07;100.00;97965.25;5027511;28;1339;-71
2023/10/15 05:28:17;;;;;;;;;;;7.20;99.90;;;6.19;100.00;97963.31;5042039;28;1434;-72
2023/10/15 05:30:44;;;;;;;;;;;7.30;99.90;;;6.16;100.00;97971.94;5025945;28;1987;-72
2023/10/15 05:33:11;;;;;;;;;;;7.30;99.90;;;6.23;100.00;97955.50;5025400;28;1457;-72
2023/10/15 05:35:43;;;;;;;;;;;7.30;99.90;;;6.08;100.00;97973.81;5040146;28;1546;-72
2023/10/15 05:38:10;;;;;;;;;;;7.30;99.90;;;6.06;100.00;97967.84;5032489;28;1190;-72
2023/10/15 05:40:37;;;;;;;;;;;7.30;99.90;;;5.81;100.00;97982.84;5036647;28;1237;-72
2023/10/15 05:43:04;;;;;;;;;;;7.20;99.90;;;5.84;100.00;97973.34;5041635;28;1328;-72
2023/10/15 05:45:31;;;;;;;;;;;7.20;99.90;;;5.86;100.00;97976.75;5039126;28;1537;-71
2023/10/15 05:47:58;;;;;;;;;;;7.10;99.90;;;5.83;100.00;97979.34;5043042;28;1293;-73
2023/10/15 05:50:26;;;;;;;;;;;7.10;99.90;;;5.64;100.00;97986.56;5039962;28;1980;-72
2023/10/15 05:52:53;;;;;;;;;;;7.10;99.90;;;5.64;100.00;97989.13;5039173;28;1518;-72
2023/10/15 05:55:20;;;;;;;;;;;7.00;99.90;;;5.74;100.00;98002.69;5045473;28;1433;-72
2023/10/15 05:57:47;;;;;;;;;;;7.00;99.90;;;5.71;100.00;98002.75;5011801;28;1338;-72
2023/10/15 06:00:17;;;;;;;;;;;6.90;99.90;;;5.89;100.00;98000.75;5024115;28;1284;-72
2023/10/15 06:02:50;;;;;;;;;;;7.00;99.90;;;5.82;100.00;98007.75;5029030;28;1742;-71
2023/10/15 06:05:17;;;;;;;;;;;7.00;99.90;;;5.67;100.00;98003.69;5035944;28;1663;-72
2023/10/15 06:07:45;;;;;;;;;;;7.00;99.90;;;5.73;100.00;98005.31;5027820;28;1205;-72
2023/10/15 06:10:12;;;;;;;;;;;7.00;99.90;;;5.91;100.00;98012.75;5044552;28;1902;-72
2023/10/15 06:12:39;;;;;;;;;;;7.00;99.90;;;5.83;100.00;98012.00;5027970;28;1402;-72
2023/10/15 06:15:08;;;;;;;;;;;7.00;99.90;;;5.94;100.00;98017.88;5042298;28;1423;-71
2023/10/15 06:17:35;;;;;;;;;;;7.10;99.90;;;5.96;100.00;98020.41;5028088;28;1287;-72
2023/10/15 06:20:12;;;;;;;;;;;7.10;99.90;;;6.03;100.00;98012.56;5027455;28;1501;-72
2023/10/15 06:22:43;;;;;;;;;;;7.20;99.90;;;6.00;100.00;98011.78;5042079;28;1577;-73
2023/10/15 06:25:12;;;;;;;;;;;7.20;99.90;;;5.93;100.00;98012.69;5026801;28;1445;-72
2023/10/15 06:27:40;;;;;;;;;;;7.20;99.90;;;5.90;100.00;98013.59;5022636;28;1052;-72
2023/10/15 06:30:14;;;;;;;;;;;7.10;99.90;;;5.81;100.00;98022.31;5042159;28;1996;-72
2023/10/15 06:32:47;;;;;;;;;;;7.10;99.90;;;5.82;100.00;98015.47;5036660;28;1636;-72
2023/10/15 06:35:19;;;;;;;;;;;7.10;99.90;;;5.93;100.00;98013.56;5039264;28;1344;-72
2023/10/15 06:37:57;;;;;;;;;;;7.10;99.90;;;5.86;100.00;98027.41;5025704;28;1454;-72
2023/10/15 06:40:26;;;;;;;;;;;7.10;99.90;;;5.81;100.00;98026.63;5042024;28;1014;-72
2023/10/15 06:43:03;;;;;;;;;;;7.10;99.90;;;5.81;100.00;98034.34;5010653;28;1301;-72
2023/10/15 06:45:34;;;;;;;;;;;7.10;99.90;;;5.92;100.00;98032.47;5030315;28;1049;-72
2023/10/15 06:48:01;;;;;;;;;;;7.10;99.90;;;5.95;100.00;98032.44;5015202;28;1577;-72
2023/10/15 06:50:28;;;;;;;;;;;7.10;99.90;;;6.11;100.00;98032.19;5018582;28;1899;-73
2023/10/15 06:52:57;;;;;;;;;;;7.10;99.90;;;6.13;100.00;98027.84;5030413;28;1478;-72
2023/10/15 06:55:23;;;;;;;;;;;7.20;99.90;;;6.15;100.00;98034.69;5026911;28;1010;-72
2023/10/15 06:57:50;;;;;;;;;;;7.20;99.90;;;6.17;100.00;98030.34;5041736;28;1110;-72
2023/10/15 07:00:24;;;;;;;;;;;7.20;99.90;;;6.14;100.00;98037.31;5038927;28;1098;-72
2023/10/15 07:02:53;;;;;;;;;;;7.30;99.90;;;6.22;100.00;98045.72;5043970;28;1413;-72
2023/10/15 07:05:23;;;;;;;;;;;7.30;99.90;;;6.22;100.00;98038.84;5040066;28;1287;-72
2023/10/15 07:07:56;;;;;;;;;;;7.30;99.90;;;6.32;100.00;98042.13;5025598;28;1551;-72
2023/10/15 07:10:25;;;;;;;;;;;7.40;99.90;;;6.18;100.00;98049.22;5048984;28;1969;-72
2023/10/15 07:12:54;;;;;;;;;;;7.40;99.90;;;6.18;100.00;98055.25;5024967;28;1345;-71
2023/10/15 07:15:21;;;;;;;;;;;7.30;99.90;;;6.20;100.00;98056.09;5026996;28;1447;-72
2023/10/15 07:17:49;;;;;;;;;;;7.40;99.90;;;6.24;100.00;98059.44;5041606;28;1436;-71
2023/10/15 07:20:18;;;;;;;;;;;7.40;99.90;;;6.26;100.00;98060.28;5041688;28;1560;-71
2023/10/15 07:22:49;;;;;;;;;;;7.40;99.90;;;6.32;100.00;98062.75;4974264;28;1418;-72
2023/10/15 07:25:20;;;;;;;;;;;7.50;99.90;;;6.33;100.00;98059.28;4997160;28;1625;-72
2023/10/15 07:27:48;;;;;;;;;;;7.50;99.90;;;6.44;100.00;98049.63;5038065;28;1252;-72
2023/10/15 07:30:19;;;;;;;;;;;7.60;99.90;;;6.77;100.00;98054.16;5009756;28;1986;-72
2023/10/15 07:32:47;;;;;;;;;;;7.80;99.90;;;7.51;100.00;98048.31;4976127;28;1563;-72
2023/10/15 07:35:17;;;;;;;;;;;8.80;99.90;;;8.46;100.00;98056.34;4980216;28;1572;-71
2023/10/15 07:37:46;;;;;;;;;;;10.00;99.90;;;9.16;100.00;98052.69;5038039;28;1602;-72
2023/10/15 07:40:17;;;;;;;;;;;10.80;99.90;;;9.91;100.00;98045.19;5024877;28;1471;-73
2023/10/15 07:42:48;;;;;;;;;;;11.60;99.90;;;10.08;100.00;98030.81;5029675;28;1360;-72
2023/10/15 07:45:16;;;;;;;;;;;12.20;99.90;;;9.93;100.00;98026.97;4997795;28;1691;-73
2023/10/15 07:47:44;;;;;;;;;;;12.50;99.90;;;10.07;100.00;98029.97;4993639;28;1575;-73
2023/10/15 07:50:18;;;;;;;;;;;12.60;99.90;;;11.27;100.00;98015.34;4997754;28;1999;-72
2023/10/15 07:52:48;;;;;;;;;;;13.10;99.90;;;11.69;100.00;98014.56;4993031;28;1576;-72
2023/10/15 07:55:16;;;;;;;;;;;13.80;99.90;;;11.96;100.00;98019.59;4998625;28;1813;-74
2023/10/15 07:57:43;;;;;;;;;;;14.10;99.90;;;12.78;100.00;98017.78;4983702;28;1616;-73
2023/10/15 08:00:15;;;;;;;;;;;14.80;99.90;;;12.75;100.00;98028.38;4976499;28;1662;-74
2023/10/15 08:02:45;;;;;;;;;;;15.00;99.90;;;12.71;100.00;98016.38;4967026;28;1588;-72
2023/10/15 08:05:13;;;;;;;;;;;14.90;99.90;;;11.93;100.00;98017.97;4996624;28;1611;-74
2023/10/15 08:07:41;;;;;;;;;;;14.40;99.90;;;12.05;100.00;98008.78;4981639;28;1597;-74
2023/10/15 08:10:10;;;;;;;;;;;14.10;99.90;;;11.39;100.00;98020.06;5013522;28;1989;-73
2023/10/15 08:12:37;;;;;;;;;;;14.10;99.90;;;11.42;100.00;98027.72;4988456;28;1644;-73
2023/10/15 08:15:06;;;;;;;;;;;13.30;99.90;;;11.49;100.00;98039.59;4991900;28;1437;-73
2023/10/15 08:17:34;;;;;;;;;;;13.30;99.90;;;10.97;100.00;98038.97;5008896;28;1383;-73
2023/10/15 08:20:04;;;;;;;;;;;13.30;99.90;;;11.82;100.00;98035.72;5000381;28;1292;-73
2023/10/15 08:22:31;;;;;;;;;;;13.40;99.90;;;11.51;100.00;98024.75;5009592;28;1689;-73
2023/10/15 08:24:58;;;;;;;;;;;13.80;99.90;;;12.19;100.00;98024.66;5017261;28;1419;-74
2023/10/15 08:27:26;;;;;;;;;;;13.50;99.90;;;12.37;100.00;98036.06;4994868;28;1608;-73
2023/10/15 08:29:53;;;;;;;;;;;13.90;99.90;;;11.93;100.00;98033.56;4994874;28;1922;-73
2023/10/15 08:32:20;;;;;;;;;;;13.80;99.90;;;11.47;100.00;98048.34;5002296;28;1586;-70
2023/10/15 08:34:48;;;;;;;;;;;14.10;99.90;;;10.57;100.00;98060.31;5013115;28;1586;-72
2023/10/15 08:37:15;;;;;;;;;;;14.30;99.90;;;10.86;100.00;98064.47;4995617;28;1653;-73
2023/10/15 08:39:42;;;;;;;;;;;14.60;99.90;;;10.85;100.00;98055.81;4995547;28;1607;-73
2023/10/15 08:42:16;;;;;;;;;;;14.30;99.90;;;10.61;100.00;98067.09;5010256;28;1562;-71
2023/10/15 08:44:43;;;;;;;;;;;14.00;99.90;;;10.48;100.00;98061.47;5009005;28;1592;-71
2023/10/15 08:47:11;;;;;;;;;;;13.10;99.90;;;10.13;100.00;98054.88;5010916;28;1574;-73
2023/10/15 08:49:45;;;;;;;;;;;12.40;99.90;;;9.62;100.00;98057.34;5007344;28;1977;-73
2023/10/15 08:52:14;;;;;;;;;;;11.70;99.90;;;9.88;100.00;98075.56;4995377;28;1516;-72
2023/10/15 08:54:45;;;;;;;;;;;11.10;99.90;;;9.42;100.00;98068.31;5028546;28;1743;-73
2023/10/15 08:57:14;;;;;;;;;;;10.80;99.90;;;9.23;100.00;98063.72;5042276;28;1516;-72
2023/10/15 08:59:43;;;;;;;;;;;10.40;99.90;;;8.99;100.00;98072.13;5026376;28;1674;-75
2023/10/15 09:02:10;;;;;;;;;;;10.10;99.90;;;9.04;100.00;98072.00;5044300;28;1454;-71
2023/10/15 09:04:37;;;;;;;;;;;10.00;99.90;;;9.16;100.00;98068.22;5040581;28;1398;-73
2023/10/15 09:07:07;;;;;;;;;;;9.90;99.90;;;9.15;100.00;98067.38;5026334;28;1395;-72
2023/10/15 09:09:35;;;;;;;;;;;9.80;99.90;;;8.98;100.00;98059.22;5024137;28;1625;-73
2023/10/15 09:12:06;;;;;;;;;;;9.80;99.90;;;9.21;100.00;98069.78;5039010;28;1957;-71
2023/10/15 09:14:40;;;;;;;;;;;10.00;99.90;;;9.66;100.00;98073.63;5022292;28;1732;-72
2023/10/15 09:17:10;;;;;;;;;;;10.30;99.90;;;9.68;100.00;98063.22;5023362;28;1272;-72
2023/10/15 09:19:42;;;;;;;;;;;10.60;99.90;;;9.83;100.00;98070.53;5039647;28;1373;-72
2023/10/15 09:22:15;;;;;;;;;;;10.60;99.90;;;9.57;100.00;98073.91;5040095;28;1374;-72
2023/10/15 09:24:46;;;;;;;;;;;10.50;99.90;;;9.43;100.00;98080.34;5020638;28;1542;-73
2023/10/15 09:27:16;;;;;;;;;;;10.30;99.90;;;9.54;100.00;98071.41;5038106;28;1394;-71
2023/10/15 09:29:43;;;;;;;;;;;10.20;99.90;;;9.87;100.00;98068.66;5023070;28;1470;-71
2023/10/15 09:32:10;;;;;;;;;;;10.40;99.90;;;9.93;100.00;98073.66;5039883;28;1988;-72
2023/10/15 09:34:37;;;;;;;;;;;10.60;99.90;;;10.30;100.00;98072.47;5019620;28;1512;-73
2023/10/15 09:37:09;;;;;;;;;;;10.60;99.90;;;10.11;100.00;98073.06;5028403;28;2014;-73
2023/10/15 09:39:38;;;;;;;;;;;10.80;99.90;;;9.79;100.00;98072.34;5036096;28;1622;-74
2023/10/15 09:42:05;;;;;;;;;;;10.80;99.90;;;9.94;100.00;98072.75;5028895;28;1398;-74
2023/10/15 09:44:33;;;;;;;;;;;10.90;99.90;;;10.09;100.00;98074.00;5022248;28;1455;-74
2023/10/15 09:47:02;;;;;;;;;;;10.90;99.90;;;9.93;100.00;98069.31;5039351;28;1391;-72
2023/10/15 09:49:33;;;;;;;;;;;10.90;99.90;;;9.57;100.00;98068.72;5038205;28;1432;-72
2023/10/15 09:52:05;;;;;;;;;;;10.70;99.90;;;9.63;100.00;98081.50;5038763;28;5039;-72
2023/10/15 09:54:33;;;;;;;;;;;10.70;99.90;;;9.97;100.00;98075.25;5028276;28;1482;-72
2023/10/15 09:57:01;;;;;;;;;;;10.60;99.90;;;9.88;100.00;98084.19;5022750;28;1573;-72
2023/10/15 09:59:29;;;;;;;;;;;10.80;99.90;;;9.91;100.00;98084.06;5039918;28;1475;-72
2023/10/15 10:01:58;;;;;;;;;;;10.80;99.90;;;10.01;100.00;98079.44;5030875;28;5150;-73
2023/10/15 10:04:52;;;;;;;;;;;10.80;99.90;;;10.02;100.00;98088.94;5025575;28;1378;-72
2023/10/15 10:07:48;;;;;;;;;;;10.80;99.90;;;10.06;100.00;98082.75;5025214;28;1669;-72
2023/10/15 10:10:21;;;;;;;;;;;11.00;99.90;;;10.21;100.00;98091.75;5043343;28;1906;-73
2023/10/15 10:13:27;;;;;;;;;;;10.90;99.90;;;10.33;100.00;98093.13;5045049;28;1795;-73
2023/10/15 10:15:57;;;;;;;;;;;11.00;99.90;;;10.65;100.00;98077.31;5011289;28;1450;-72
2023/10/15 10:18:27;;;;;;;;;;;11.20;99.90;;;11.27;100.00;98082.91;5032904;28;1423;-73
2023/10/15 10:20:56;;;;;;;;;;;11.40;99.90;;;11.15;100.00;98076.38;5028381;28;1398;-72
2023/10/15 10:23:23;;;;;;;;;;;11.40;99.90;;;10.78;100.00;98088.09;5041736;28;1335;-72
2023/10/15 10:26:17;;;;;;;;;;;11.50;99.90;;;10.17;100.00;98105.72;5028395;28;2108;-72
2023/10/15 10:28:45;;;;;;;;;;;11.10;99.90;;;10.23;100.00;98101.19;5017431;28;1351;-71
2023/10/15 10:31:13;;;;;;;;;;;10.90;99.90;;;10.44;100.00;98099.66;5047722;28;1886;-73
2023/10/15 10:33:41;;;;;;;;;;;11.00;99.90;;;10.12;100.00;98092.06;5044239;28;1763;-73
2023/10/15 10:36:15;;;;;;;;;;;11.10;99.90;;;10.36;100.00;98093.03;5047442;28;1444;-73
2023/10/15 10:38:43;;;;;;;;;;;11.10;99.90;;;10.73;100.00;98086.59;5030317;28;1474;-74
2023/10/15 10:41:16;;;;;;;;;;;11.30;99.90;;;11.33;100.00;98076.63;5008148;28;1700;-74
2023/10/15 10:43:46;;;;;;;;;;;11.60;99.90;;;10.86;100.00;98075.72;5030450;28;1464;-74
2023/10/15 10:46:23;;;;;;;;;;;11.30;99.90;;;10.61;100.00;98095.66;5029645;28;1623;-74
2023/10/15 10:49:04;;;;;;;;;;;11.30;99.90;;;10.55;100.00;98096.69;5032109;28;1473;-74
2023/10/15 10:51:35;;;;;;;;;;;11.30;99.90;;;10.58;100.00;98093.16;5042897;28;1914;-73
2023/10/15 10:54:03;;;;;;;;;;;11.40;99.90;;;10.59;100.00;98093.09;5026939;28;1412;-72
2023/10/15 10:56:39;;;;;;;;;;;11.40;99.90;;;10.72;100.00;98085.75;5039028;28;1455;-73
2023/10/15 10:59:11;;;;;;;;;;;11.30;99.90;;;10.97;100.00;98079.66;5045353;28;1623;-73
2023/10/15 11:01:39;;;;;;;;;;;11.50;99.90;;;10.40;100.00;98097.22;5021750;28;1568;-73
2023/10/15 11:04:11;;;;;;;;;;;11.50;99.90;;;10.21;100.00;98102.13;5026547;28;1459;-73
2023/10/15 11:06:42;;;;;;;;;;;11.30;99.90;;;10.37;100.00;98111.13;5047607;28;1277;-73
2023/10/15 11:09:15;;;;;;;;;;;11.30;99.90;;;9.82;100.00;98105.09;5036555;28;1276;-73
2023/10/15 11:11:50;;;;;;;;;;;11.00;99.90;;;9.75;100.00;98104.44;5031614;28;1906;-72
2023/10/15 11:14:22;;;;;;;;;;;10.90;99.90;;;10.11;100.00;98104.19;5042080;28;1660;-73
2023/10/15 11:16:55;;;;;;;;;;;11.00;99.90;;;10.11;100.00;98092.97;5034206;28;1058;-74
2023/10/15 11:19:32;;;;;;;;;;;11.00;99.90;;;10.43;100.00;98097.97;5032059;28;1408;-73
2023/10/15 11:21:59;;;;;;;;;;;11.10;99.90;;;10.35;100.00;98080.94;5041350;28;1421;-73
2023/10/15 11:24:27;;;;;;;;;;;11.20;99.90;;;10.59;100.00;98079.28;5026560;28;1444;-73
2023/10/15 11:26:54;;;;;;;;;;;11.30;99.90;;;10.48;100.00;98090.03;5025713;28;2071;-72
2023/10/15 11:29:24;;;;;;;;;;;11.30;99.90;;;10.35;100.00;98084.38;5023949;28;1587;-73
2023/10/15 11:31:56;;;;;;;;;;;11.20;99.90;;;10.51;100.00;98079.53;5025009;28;2012;-74
2023/10/15 11:34:25;;;;;;;;;;;11.30;99.90;;;10.34;100.00;98072.31;5030646;28;1722;-73
2023/10/15 11:36:55;;;;;;;;;;;11.20;99.90;;;10.27;100.00;98076.00;5027115;28;2054;-73
2023/10/15 11:39:25;;;;;;;;;;;11.10;99.90;;;10.43;100.00;98050.41;5012276;28;1836;-74
2023/10/15 11:41:55;;;;;;;;;;;11.20;99.90;;;10.50;100.00;98072.66;5039012;28;1498;-73
2023/10/15 11:44:30;;;;;;;;;;;11.10;99.90;;;10.51;100.00;98068.31;5014420;28;1596;-74
2023/10/15 11:47:08;;;;;;;;;;;11.20;99.90;;;10.44;100.00;98059.88;5030365;28;1610;-74
2023/10/15 11:49:42;;;;;;;;;;;11.30;99.90;;;10.35;100.00;98075.75;5032246;28;1583;-74
2023/10/15 11:52:14;;;;;;;;;;;11.30;99.90;;;10.17;100.00;98072.00;5028939;28;2005;-75
2023/10/15 11:54:49;;;;;;;;;;;11.10;99.90;;;10.31;100.00;98080.22;5024794;28;1418;-74
2023/10/15 11:57:21;;;;;;;;;;;11.20;99.90;;;10.65;100.00;98066.06;5025914;28;1500;-74
2023/10/15 11:59:49;;;;;;;;;;;11.20;99.90;;;10.52;100.00;98072.63;5029640;28;1738;-73
2023/10/15 12:02:21;;;;;;;;;;;11.10;99.90;;;10.85;100.00;98061.00;5038892;28;1437;-73
2023/10/15 12:04:51;;;;;;;;;;;11.30;99.90;;;10.92;100.00;98051.25;5030378;28;1672;-73
2023/10/15 12:07:22;;;;;;;;;;;11.50;99.90;;;10.94;100.00;98048.63;5041730;28;1756;-74
2023/10/15 12:09:49;;;;;;;;;;;11.60;99.90;;;11.37;100.00;98050.44;5023983;28;1544;-73
2023/10/15 12:12:17;;;;;;;;;;;11.90;99.90;;;11.25;100.00;98053.53;5022987;28;1918;-74